MUC | München Airways

 METAR UND TAF INFORMATION

METAR FOR EFRO
ADDS - METARS form results

(1533 UTC 19 May 2019)
Data provider http://aviationweather.gov/metar/data/
 
METAR text: EFRO 191520Z AUTO 15007KT 100V200 CAVOK 22/05 Q1017
Conditions at: EFRO (ROVANIEMI (CIV/M, FI) observed 1520 UTC 19 May 2019
Temperature: 22.0°C (72°F)
Dewpoint: 5.0°C (41°F) [RH = 33%]
Pressure (altimeter): 30.03 inches Hg (1017.0 mb)
Winds: from the SSE (150 degrees) at 8 MPH (7 knots; 3.6 m/s)
Visibility: 6 or more miles (10+ km)
Ceiling: ceiling and visibility are OK
Clouds: unknown
Weather: no significant weather observed at this time

METAR text: EFRO 191450Z AUTO 15008KT 110V190 CAVOK 22/05 Q1017
Conditions at: EFRO (ROVANIEMI (CIV/M, FI) observed 1450 UTC 19 May 2019
Temperature: 22.0°C (72°F)
Dewpoint: 5.0°C (41°F) [RH = 33%]
Pressure (altimeter): 30.03 inches Hg (1017.0 mb)
Winds: from the SSE (150 degrees) at 9 MPH (8 knots; 4.1 m/s)
Visibility: 6 or more miles (10+ km)
Ceiling: ceiling and visibility are OK
Clouds: unknown
Weather: no significant weather observed at this time

Forecast for: EFRO (ROVANIEMI (CIV/M, FI)
Text: TAF EFRO 191427Z 1915/2015 16007KT CAVOK
Forecast period: 1500 UTC 19 May 2019 to 1400 UTC 20 May 2019
Forecast type: FROM: standard forecast or significant change
Winds: from the SSE (160 degrees) at 8 MPH (7 knots; 3.6 m/s)
Visibility: 6 or more miles 10+ km)
Ceiling: unknown
Clouds: missing
Weather: NSW  (no significant weather)
Text: TEMPO 2010/2014 SHRA FEW025CB
Forecast period: 1000 to 1400 UTC 20 May 2019
Forecast type: TEMPORARY: The following changes expected for less than half the time period
Visibility: missing
Ceiling: at least 12,000 feet AGL
Clouds: few clouds at 2500 feet AGL
Weather: SHRA  (rain showers)
Text: BECMG 2014/2015 6000 -DZ BKN005
Forecast period: 1400 to 1500 UTC 20 May 2019
Forecast type: BECOMING: Conditions expected to become as follows by 1500 UTC 20 May 2019
Winds: from the SSE (160 degrees) at 8 MPH (7 knots; 3.6 m/s)
Visibility: 4 miles (6 km)
Ceiling: 500 feet AGL
Clouds: broken clouds at 500 feet AGL
Weather: -DZ  (light drizzle)

 FLUGHAFENKARTE

 RUNWAY INFORMATION
Runway 03 Runway length 9849 ft Runway width 197 ft
Runway elevation 633 ft Runway displaced threshold 0 ft Runway heading 37
Runway 21 Runway length 9849 ft Runway width 197 ft
Runway elevation 609 ft Runway displaced threshold 0 ft Runway heading 217

 AIRPORT FREQUENCIES
Type APP Name APP Frequency 125.8 MHZ
Type ATIS Name ATIS Frequency 117.7 MHZ
Type GND Name GND Frequency 118.525 MHZ
Type PMSV Name PMSV METRO Frequency 125.1 MHZ
Type TWR Name TWR Frequency 118.7 MHZ

 AIRPORT NEAR NAVIGATION AIDS
Type NDB Name Papa-Alfa Frequency 377 KHZ
Type VOR-DME Name Rovani Frequency 117700 KHZ
Type NDB Name Toramo Frequency 416 KHZ